Time;durP1;ratioP1;P1;durP2;ratioP2;P2;SDS_P1;SDS_P2;PMS_P1;PMS_P2;Temp;Humidity;BMP_temperature;BMP_pressure;BME280_temperature;BME280_humidity;BME280_pressure;Samples;Min_cycle;Max_cycle;Signal;HPM_P1;HPM_P2
2023/12/05 00:01:15;;;;;;;13.07;7.95;;;-1.90;99.90;;;;;;4995010;28;20880;-52
2023/12/05 00:03:41;;;;;;;12.20;8.30;;;-1.90;99.90;;;;;;4976072;28;20167;-56
2023/12/05 00:06:10;;;;;;;13.13;8.55;;;-1.90;99.90;;;;;;4963105;28;20097;-52
2023/12/05 00:08:36;;;;;;;14.85;8.10;;;-1.90;99.90;;;;;;4970362;28;20079;-56
2023/12/05 00:11:06;;;;;;;16.17;8.23;;;-2.00;99.90;;;;;;4977628;28;20420;-57
2023/12/05 00:13:32;;;;;;;14.80;8.27;;;-1.90;99.90;;;;;;4981749;28;20088;-58
2023/12/05 00:15:57;;;;;;;13.20;7.00;;;-2.00;99.90;;;;;;4991937;28;20521;-59
2023/12/05 00:18:24;;;;;;;13.38;8.65;;;-2.00;99.90;;;;;;4954003;28;22216;-56
2023/12/05 00:20:50;;;;;;;14.30;8.35;;;-1.90;99.90;;;;;;4956899;28;20029;-56
2023/12/05 00:23:16;;;;;;;13.35;7.78;;;-2.00;99.90;;;;;;4939536;28;20025;-58
2023/12/05 00:25:42;;;;;;;15.10;8.50;;;-2.00;99.90;;;;;;4949075;28;20106;-58
2023/12/05 00:28:07;;;;;;;13.13;8.73;;;-2.00;99.90;;;;;;5004448;28;20571;-59
2023/12/05 00:30:33;;;;;;;13.07;8.93;;;-2.00;99.90;;;;;;4965664;28;20525;-51
2023/12/05 00:32:58;;;;;;;13.68;8.38;;;-2.00;99.90;;;;;;4947773;28;20500;-55
2023/12/05 00:35:24;;;;;;;12.82;7.25;;;-2.00;99.90;;;;;;4971679;28;20456;-55
2023/12/05 00:37:50;;;;;;;12.27;7.85;;;-2.00;99.90;;;;;;4982950;28;21641;-59
2023/12/05 00:40:15;;;;;;;13.88;8.23;;;-2.00;99.90;;;;;;4971399;28;20017;-52
2023/12/05 00:42:41;;;;;;;15.30;7.43;;;-2.00;99.90;;;;;;4979014;28;20021;-56
2023/12/05 00:45:07;;;;;;;14.77;7.80;;;-2.00;99.90;;;;;;4973482;28;20041;-56
2023/12/05 00:47:32;;;;;;;12.02;8.15;;;-2.00;99.90;;;;;;4960651;28;20036;-56
2023/12/05 00:49:58;;;;;;;13.48;8.25;;;-2.00;99.90;;;;;;4989563;28;20029;-57
2023/12/05 00:52:23;;;;;;;10.90;7.60;;;-2.00;99.90;;;;;;4983392;28;20044;-57
2023/12/05 00:54:49;;;;;;;14.00;8.93;;;-2.00;99.90;;;;;;4980813;28;20025;-61
2023/12/05 00:57:14;;;;;;;15.95;8.73;;;-2.00;99.90;;;;;;4950697;28;20075;-59
2023/12/05 00:59:40;;;;;;;13.52;8.02;;;-2.00;99.90;;;;;;4986959;28;20407;-56
2023/12/05 01:02:05;;;;;;;12.85;8.27;;;-2.00;99.90;;;;;;4984112;28;20510;-57
2023/12/05 01:04:31;;;;;;;12.27;7.78;;;-2.00;99.90;;;;;;4959939;28;20021;-62
2023/12/05 01:06:56;;;;;;;14.98;8.55;;;-2.00;99.90;;;;;;4968140;28;20029;-56
2023/12/05 01:09:22;;;;;;;15.13;8.55;;;-2.00;99.90;;;;;;4947478;28;20029;-55
2023/12/05 01:11:48;;;;;;;15.98;8.95;;;-2.00;99.90;;;;;;4941537;28;20026;-52
2023/12/05 01:14:13;;;;;;;14.30;9.15;;;-2.00;99.90;;;;;;4994725;28;20489;-56
2023/12/05 01:16:43;;;;;;;16.67;9.35;;;-2.00;99.90;;;;;;4964109;28;21392;-54
2023/12/05 01:19:09;;;;;;;15.57;8.90;;;-2.00;99.90;;;;;;4953896;28;21424;-53
2023/12/05 01:21:35;;;;;;;14.63;8.48;;;-2.00;99.90;;;;;;4962457;28;20033;-59
2023/12/05 01:24:00;;;;;;;15.15;8.82;;;-2.00;99.90;;;;;;4923620;28;20508;-57
2023/12/05 01:26:26;;;;;;;15.73;9.35;;;-2.00;99.90;;;;;;4957027;28;20078;-60
2023/12/05 01:28:51;;;;;;;13.82;8.30;;;-2.00;99.90;;;;;;4987127;28;20025;-56
2023/12/05 01:31:17;;;;;;;14.65;8.73;;;-2.00;99.90;;;;;;4978039;28;20056;-57
2023/12/05 01:33:43;;;;;;;11.60;8.07;;;-2.00;99.90;;;;;;4975090;28;20030;-57
2023/12/05 01:36:10;;;;;;;12.98;8.90;;;-2.00;99.90;;;;;;4936637;28;20489;-58
2023/12/05 01:38:36;;;;;;;13.95;9.10;;;-2.00;99.90;;;;;;4940344;28;20029;-58
2023/12/05 01:41:01;;;;;;;13.52;7.82;;;-2.00;99.90;;;;;;5012248;28;20034;-55
2023/12/05 01:43:27;;;;;;;13.65;8.57;;;-1.90;99.90;;;;;;4946217;28;20034;-56
2023/12/05 01:45:55;;;;;;;12.35;8.32;;;-1.90;99.90;;;;;;4953390;28;20048;-52
2023/12/05 01:48:21;;;;;;;13.48;9.15;;;-1.90;99.90;;;;;;4956901;28;20374;-55
2023/12/05 01:50:47;;;;;;;14.50;9.27;;;-1.90;99.90;;;;;;4965617;28;20679;-52
2023/12/05 01:53:15;;;;;;;18.25;9.57;;;-1.90;99.90;;;;;;5000585;28;20531;-53
2023/12/05 01:55:42;;;;;;;15.38;8.95;;;-1.90;99.90;;;;;;4934844;28;20744;-52
2023/12/05 01:58:11;;;;;;;15.90;10.15;;;-1.90;99.90;;;;;;4948789;28;20041;-55
2023/12/05 02:00:40;;;;;;;14.52;9.82;;;-1.90;99.90;;;;;;4968200;28;20147;-59
2023/12/05 02:03:07;;;;;;;11.57;7.97;;;-1.90;99.90;;;;;;4957074;28;20075;-54
2023/12/05 02:05:32;;;;;;;14.27;8.60;;;-1.90;99.90;;;;;;4968082;28;20053;-55
2023/12/05 02:07:58;;;;;;;15.10;9.18;;;-1.90;99.90;;;;;;4995417;28;20025;-55
2023/12/05 02:10:24;;;;;;;12.65;8.02;;;-1.90;99.90;;;;;;4957296;28;20025;-55
2023/12/05 02:12:49;;;;;;;14.15;9.77;;;-1.90;99.90;;;;;;4945287;28;20032;-60
2023/12/05 02:15:16;;;;;;;14.70;9.77;;;-1.90;99.90;;;;;;4932838;28;20044;-55
2023/12/05 02:17:58;;;;;;;13.18;8.88;;;-1.90;99.90;;;;;;4973564;28;22090;-57
2023/12/05 02:21:12;;;;;;;16.08;9.30;;;-1.90;99.90;;;;;;4965696;28;20375;-60
2023/12/05 02:23:44;;;;;;;15.20;8.95;;;-1.90;99.90;;;;;;4933272;28;20045;-58
2023/12/05 02:26:43;;;;;;;14.13;8.57;;;-1.90;99.90;;;;;;5009204;28;20496;-53
2023/12/05 02:29:08;;;;;;;15.02;9.70;;;-1.90;99.90;;;;;;4986986;28;20021;-51
2023/12/05 02:31:34;;;;;;;15.25;9.43;;;-1.90;99.90;;;;;;4949507;28;20041;-54
2023/12/05 02:34:00;;;;;;;15.30;10.60;;;-1.90;99.90;;;;;;4945011;28;20025;-55
2023/12/05 02:36:45;;;;;;;14.15;8.77;;;-1.90;99.90;;;;;;4943030;28;20025;-52
2023/12/05 02:39:28;;;;;;;15.05;9.52;;;-1.90;99.90;;;;;;4960168;28;20087;-54
2023/12/05 02:41:56;;;;;;;15.23;9.38;;;-1.90;99.90;;;;;;4960039;28;20037;-57
2023/12/05 02:44:36;;;;;;;18.10;10.07;;;-1.90;99.90;;;;;;4994298;28;20034;-61
2023/12/05 02:47:03;;;;;;;15.35;9.38;;;-2.00;99.90;;;;;;5014839;28;20053;-53
2023/12/05 02:49:29;;;;;;;14.70;9.18;;;-1.90;99.90;;;;;;4956946;28;20474;-56
2023/12/05 02:51:54;;;;;;;18.83;9.80;;;-1.90;99.90;;;;;;4948430;28;20032;-54
2023/12/05 02:54:20;;;;;;;15.02;9.45;;;-1.90;99.90;;;;;;4958367;28;20168;-51
2023/12/05 02:56:45;;;;;;;15.13;9.40;;;-1.90;99.90;;;;;;4960310;28;20041;-56
2023/12/05 02:59:11;;;;;;;12.48;9.13;;;-1.90;99.90;;;;;;5021645;28;20037;-53
2023/12/05 03:01:42;;;;;;;15.95;9.98;;;-1.90;99.90;;;;;;4958935;28;20391;-55
2023/12/05 03:04:07;;;;;;;15.60;9.88;;;-1.90;99.90;;;;;;4955358;28;20033;-53
2023/12/05 03:06:33;;;;;;;15.10;9.80;;;-1.90;99.90;;;;;;4957402;28;20040;-52
2023/12/05 03:09:03;;;;;;;20.88;9.77;;;-1.90;99.90;;;;;;4956585;28;20029;-54
2023/12/05 03:11:29;;;;;;;17.65;9.75;;;-1.90;99.90;;;;;;4981233;28;20021;-61
2023/12/05 03:13:55;;;;;;;16.75;10.38;;;-1.90;99.90;;;;;;4998797;28;20041;-55
2023/12/05 03:16:20;;;;;;;18.50;10.77;;;-1.90;99.90;;;;;;4953556;28;20091;-57
2023/12/05 03:18:46;;;;;;;17.20;9.90;;;-1.90;99.90;;;;;;4955431;28;20040;-53
2023/12/05 03:21:18;;;;;;;17.27;10.25;;;-1.90;99.90;;;;;;4987786;28;20033;-52
2023/12/05 03:23:44;;;;;;;16.17;10.88;;;-1.90;99.90;;;;;;4964460;28;20037;-55
2023/12/05 03:26:20;;;;;;;17.70;10.85;;;-1.90;99.90;;;;;;4992815;28;21233;-55
2023/12/05 03:28:47;;;;;;;;;;;-1.80;99.90;;;;;;4973863;28;20029;-56
2023/12/05 03:31:13;;;;;;;18.67;10.13;;;-1.80;99.90;;;;;;4967100;28;19909;-54
2023/12/05 03:33:38;;;;;;;17.65;10.15;;;-1.90;99.90;;;;;;4972179;28;20028;-53
2023/12/05 03:36:05;;;;;;;17.23;10.48;;;-1.80;99.90;;;;;;4999377;28;20030;-54
2023/12/05 03:38:30;;;;;;;18.65;10.75;;;-1.90;99.90;;;;;;4981037;28;20462;-61
2023/12/05 03:40:56;;;;;;;19.42;10.45;;;-1.80;99.90;;;;;;4969685;28;20037;-55
2023/12/05 03:43:22;;;;;;;18.38;10.52;;;-1.90;99.90;;;;;;4965116;28;20045;-53
2023/12/05 03:45:48;;;;;;;15.25;10.20;;;-1.90;99.90;;;;;;4988574;28;20026;-55
2023/12/05 03:48:14;;;;;;;20.92;10.70;;;-1.90;99.90;;;;;;4983839;28;20055;-55
2023/12/05 03:50:39;;;;;;;18.98;11.20;;;-1.90;99.90;;;;;;4951157;28;20030;-55
2023/12/05 03:53:05;;;;;;;17.75;10.73;;;-1.90;99.90;;;;;;4984685;28;20084;-51
2023/12/05 03:55:34;;;;;;;24.08;12.68;;;-1.90;99.90;;;;;;4955838;28;20112;-54
2023/12/05 03:58:00;;;;;;;18.23;10.75;;;-1.90;99.90;;;;;;4947817;28;20030;-56
2023/12/05 04:00:26;;;;;;;20.30;11.30;;;-1.90;99.90;;;;;;4970454;28;20644;-54
2023/12/05 04:02:52;;;;;;;16.35;10.27;;;-1.90;99.90;;;;;;4998801;28;20432;-56
2023/12/05 04:05:17;;;;;;;19.40;11.98;;;-1.90;99.90;;;;;;4988911;28;20045;-55
2023/12/05 04:07:43;;;;;;;20.08;11.95;;;-1.90;99.90;;;;;;4966460;28;20033;-55
2023/12/05 04:10:12;;;;;;;19.88;11.85;;;-1.90;99.90;;;;;;4963196;28;20045;-55
2023/12/05 04:12:39;;;;;;;21.33;11.35;;;-1.90;99.90;;;;;;4938836;28;20042;-56
2023/12/05 04:15:06;;;;;;;18.40;11.32;;;-1.90;99.90;;;;;;4978047;28;20138;-52
2023/12/05 04:17:31;;;;;;;20.40;11.77;;;-1.90;99.90;;;;;;4972928;22;20049;-59
2023/12/05 04:19:57;;;;;;;18.52;11.40;;;-1.90;99.90;;;;;;4976158;28;20430;-54
2023/12/05 04:22:23;;;;;;;21.75;12.13;;;-2.00;99.90;;;;;;4975708;28;20025;-55
2023/12/05 04:24:48;;;;;;;25.10;13.02;;;-2.00;99.90;;;;;;4974275;28;20470;-54
2023/12/05 04:27:14;;;;;;;22.30;12.18;;;-2.00;99.90;;;;;;4986146;28;20036;-55
2023/12/05 04:29:39;;;;;;;19.50;12.57;;;-2.00;99.90;;;;;;4939228;28;20101;-54
2023/12/05 04:32:06;;;;;;;14.48;10.52;;;-2.00;99.90;;;;;;4974277;28;20021;-58
2023/12/05 04:34:32;;;;;;;24.83;12.63;;;-2.00;99.90;;;;;;4929552;28;20013;-56
2023/12/05 04:36:57;;;;;;;18.98;12.65;;;-2.00;99.90;;;;;;4996801;28;20025;-53
2023/12/05 04:39:23;;;;;;;21.10;12.45;;;-2.00;99.90;;;;;;4994461;28;20544;-59
2023/12/05 04:41:49;;;;;;;17.23;11.55;;;-2.00;99.90;;;;;;4983609;28;20650;-56
2023/12/05 04:44:15;;;;;;;21.58;12.27;;;-2.00;99.90;;;;;;4953531;28;22367;-56
2023/12/05 04:46:41;;;;;;;22.88;13.25;;;-2.00;99.90;;;;;;4994246;28;20474;-57
2023/12/05 04:49:07;;;;;;;18.90;12.05;;;-2.00;99.90;;;;;;4974899;28;20382;-56
2023/12/05 04:51:33;;;;;;;21.92;13.05;;;-2.00;99.90;;;;;;4999125;28;20039;-54
2023/12/05 04:53:58;;;;;;;21.05;13.20;;;-2.00;99.90;;;;;;5007062;28;20025;-55
2023/12/05 04:56:24;;;;;;;22.20;14.13;;;-2.00;99.90;;;;;;4984442;28;20045;-53
2023/12/05 04:58:49;;;;;;;23.05;13.45;;;-2.00;99.90;;;;;;4974931;28;20026;-59
2023/12/05 05:01:15;;;;;;;23.55;13.43;;;-2.00;99.90;;;;;;4984757;28;20034;-56
2023/12/05 05:03:40;;;;;;;23.33;12.50;;;-2.00;99.90;;;;;;4985258;28;21390;-55
2023/12/05 05:06:06;;;;;;;25.42;14.27;;;-2.00;99.90;;;;;;5012933;28;20029;-54
2023/12/05 05:08:32;;;;;;;21.38;14.20;;;-2.00;99.90;;;;;;5003883;28;20018;-52
2023/12/05 05:10:57;;;;;;;23.23;13.48;;;-2.00;99.90;;;;;;4985701;28;20044;-55
2023/12/05 05:13:23;;;;;;;22.92;13.50;;;-2.00;99.90;;;;;;5018034;28;21569;-57
2023/12/05 05:15:48;;;;;;;20.80;12.88;;;-2.00;99.90;;;;;;4961743;28;21666;-56
2023/12/05 05:18:14;;;;;;;24.33;13.52;;;-2.00;99.90;;;;;;4992326;28;20049;-56
2023/12/05 05:20:39;;;;;;;23.88;13.52;;;-2.00;99.90;;;;;;5009339;28;20478;-55
2023/12/05 05:23:06;;;;;;;25.17;14.68;;;-2.00;99.90;;;;;;4956012;28;20033;-53
2023/12/05 05:25:31;;;;;;;24.05;13.38;;;-2.00;99.90;;;;;;4958869;28;20033;-56
2023/12/05 05:27:57;;;;;;;24.13;13.38;;;-2.00;99.90;;;;;;4975695;28;20495;-55
2023/12/05 05:30:23;;;;;;;26.92;13.75;;;-2.00;99.90;;;;;;4960163;28;20026;-59
2023/12/05 05:32:48;;;;;;;23.38;13.88;;;-2.00;99.90;;;;;;4970685;28;20057;-57
2023/12/05 05:35:14;;;;;;;24.27;13.38;;;-2.00;99.90;;;;;;4977562;28;20525;-56
2023/12/05 05:37:39;;;;;;;26.40;14.88;;;-2.10;99.90;;;;;;4975392;28;20478;-56
2023/12/05 05:40:07;;;;;;;24.63;14.48;;;-2.10;99.90;;;;;;4944737;28;20052;-59
2023/12/05 05:42:32;;;;;;;22.52;14.35;;;-2.10;99.90;;;;;;4947532;28;20091;-54
2023/12/05 05:44:58;;;;;;;20.15;13.85;;;-2.10;99.90;;;;;;4997446;28;20505;-55
2023/12/05 05:47:24;;;;;;;24.30;14.23;;;-2.10;99.90;;;;;;4936623;28;20034;-56
2023/12/05 05:49:49;;;;;;;24.70;15.10;;;-2.10;99.90;;;;;;4960159;28;20630;-54
2023/12/05 05:52:15;;;;;;;24.65;13.98;;;-2.10;99.90;;;;;;4981136;28;20030;-55
2023/12/05 05:54:41;;;;;;;25.30;14.60;;;-2.10;99.90;;;;;;4970998;28;21821;-55
2023/12/05 05:57:06;;;;;;;22.75;13.82;;;-2.10;99.90;;;;;;4999629;28;20025;-54
2023/12/05 05:59:32;;;;;;;24.67;14.32;;;-2.10;99.90;;;;;;4976542;28;20041;-54
2023/12/05 06:01:57;;;;;;;29.77;15.52;;;-2.10;99.90;;;;;;4969066;28;20040;-55
2023/12/05 06:04:23;;;;;;;23.10;13.40;;;-2.20;99.90;;;;;;4956903;28;21784;-52
2023/12/05 06:06:49;;;;;;;22.75;14.82;;;-2.20;99.90;;;;;;4975751;28;20676;-57
2023/12/05 06:09:14;;;;;;;26.67;14.57;;;-2.20;99.90;;;;;;5001752;28;20382;-57
2023/12/05 06:11:40;;;;;;;25.90;15.38;;;-2.20;99.90;;;;;;4973550;28;20034;-57
2023/12/05 06:14:05;;;;;;;25.77;14.95;;;-2.20;99.90;;;;;;4938261;28;20037;-56
2023/12/05 06:16:31;;;;;;;27.55;15.90;;;-2.20;99.90;;;;;;4943984;28;20032;-57
2023/12/05 06:18:57;;;;;;;28.77;14.85;;;-2.10;99.90;;;;;;4941693;28;20069;-58
2023/12/05 06:21:22;;;;;;;31.13;15.85;;;-2.20;99.90;;;;;;5005908;28;20029;-59
2023/12/05 06:23:48;;;;;;;28.85;15.25;;;-2.20;99.90;;;;;;4969846;28;20029;-59
2023/12/05 06:26:13;;;;;;;27.13;15.88;;;-2.20;99.90;;;;;;4949201;28;20697;-57
2023/12/05 06:28:39;;;;;;;27.92;16.80;;;-2.20;99.90;;;;;;4964717;28;20030;-58
2023/12/05 06:31:05;;;;;;;29.58;15.60;;;-2.20;99.90;;;;;;4939971;28;20033;-57
2023/12/05 06:33:31;;;;;;;28.00;16.48;;;-2.20;99.90;;;;;;4979822;28;20119;-59
2023/12/05 06:35:56;;;;;;;26.83;15.38;;;-2.20;99.90;;;;;;4991322;28;20052;-57
2023/12/05 06:38:22;;;;;;;23.80;14.77;;;-2.20;99.90;;;;;;4963765;28;20028;-57
2023/12/05 06:40:47;;;;;;;25.08;15.48;;;-2.20;99.90;;;;;;4947274;28;20092;-57
2023/12/05 06:43:13;;;;;;;28.75;16.02;;;-2.20;99.90;;;;;;4944207;28;20095;-59
2023/12/05 06:45:39;;;;;;;31.38;15.55;;;-2.20;99.90;;;;;;4953331;28;20022;-57
2023/12/05 06:48:04;;;;;;;30.25;17.42;;;-2.20;99.90;;;;;;5001447;28;20091;-59
2023/12/05 06:50:30;;;;;;;28.92;15.57;;;-2.30;99.90;;;;;;4968076;28;20443;-57
2023/12/05 06:52:57;;;;;;;28.80;16.38;;;-2.30;99.90;;;;;;4966281;28;20029;-58
2023/12/05 06:55:26;;;;;;;29.88;15.75;;;-2.30;99.90;;;;;;4975651;28;20033;-59
2023/12/05 06:57:52;;;;;;;28.92;16.35;;;-2.30;99.90;;;;;;4962296;28;21836;-59
2023/12/05 07:00:18;;;;;;;32.03;16.48;;;-2.30;99.90;;;;;;4993149;28;20076;-58
2023/12/05 07:02:44;;;;;;;35.08;18.40;;;-2.30;99.90;;;;;;4979055;28;20026;-57
2023/12/05 07:05:10;;;;;;;29.25;17.30;;;-2.30;99.90;;;;;;4968159;28;20033;-57
2023/12/05 07:07:35;;;;;;;27.90;16.75;;;-2.30;99.90;;;;;;4944425;28;20029;-56
2023/12/05 07:10:02;;;;;;;29.30;17.52;;;-2.30;99.90;;;;;;4994915;28;20612;-55
2023/12/05 07:12:28;;;;;;;28.15;17.27;;;-2.30;99.90;;;;;;4971210;28;20108;-60
2023/12/05 07:14:54;;;;;;;32.17;17.58;;;-2.30;99.90;;;;;;4985906;28;20021;-57
2023/12/05 07:17:19;;;;;;;28.02;16.48;;;-2.30;99.90;;;;;;4954576;28;20087;-60
2023/12/05 07:19:45;;;;;;;27.05;16.80;;;-2.30;99.90;;;;;;4959198;28;20071;-57
2023/12/05 07:22:12;;;;;;;25.83;16.35;;;-2.30;99.90;;;;;;4950748;28;20036;-61
2023/12/05 07:24:37;;;;;;;29.83;16.88;;;-2.40;99.90;;;;;;4924167;28;20129;-59
2023/12/05 07:27:03;;;;;;;30.30;17.45;;;-2.30;99.90;;;;;;4995879;28;20028;-59
2023/12/05 07:29:29;;;;;;;34.63;19.00;;;-2.30;99.90;;;;;;4975181;28;20071;-57
2023/12/05 07:31:54;;;;;;;26.95;17.13;;;-2.30;99.90;;;;;;4974653;28;20083;-58
2023/12/05 07:34:20;;;;;;;30.08;17.50;;;-2.30;99.90;;;;;;4985516;28;20221;-57
2023/12/05 07:36:46;;;;;;;33.55;17.83;;;-2.30;99.90;;;;;;4934820;28;20714;-57
2023/12/05 07:39:12;;;;;;;30.02;16.67;;;-2.30;99.90;;;;;;4985819;28;20086;-55
2023/12/05 07:41:39;;;;;;;25.50;16.50;;;-2.30;99.90;;;;;;4951582;28;20076;-56
2023/12/05 07:44:06;;;;;;;30.88;18.63;;;-2.30;99.90;;;;;;4936051;28;20113;-60
2023/12/05 07:46:32;;;;;;;30.50;17.80;;;-2.30;99.90;;;;;;4904879;28;20021;-57
2023/12/05 07:48:58;;;;;;;33.45;18.00;;;-2.30;99.90;;;;;;4991781;28;20029;-54
2023/12/05 07:51:23;;;;;;;28.95;17.13;;;-2.30;99.90;;;;;;4970205;28;20025;-57
2023/12/05 07:53:50;;;;;;;32.75;17.67;;;-2.20;99.90;;;;;;4975263;28;20029;-57
2023/12/05 07:56:16;;;;;;;34.83;18.50;;;-2.20;99.90;;;;;;4966679;28;20584;-56
2023/12/05 07:58:42;;;;;;;26.20;16.73;;;-2.20;99.90;;;;;;4966658;28;21733;-57
2023/12/05 08:01:08;;;;;;;34.08;17.77;;;-2.20;99.90;;;;;;4972947;28;20120;-57
2023/12/05 08:03:34;;;;;;;36.17;17.23;;;-2.20;99.90;;;;;;4972895;28;20423;-58
2023/12/05 08:06:01;;;;;;;28.20;17.00;;;-2.10;99.90;;;;;;4997669;28;20030;-56
2023/12/05 08:08:29;;;;;;;30.42;18.02;;;-2.10;99.90;;;;;;4990682;28;20048;-58
2023/12/05 08:10:56;;;;;;;29.52;18.60;;;-2.10;99.90;;;;;;4989738;28;20640;-57
2023/12/05 08:13:22;;;;;;;29.35;17.75;;;-2.10;99.90;;;;;;5008327;28;20033;-56
2023/12/05 08:15:47;;;;;;;31.73;17.80;;;-2.10;99.90;;;;;;4988080;28;20039;-57
2023/12/05 08:18:13;;;;;;;28.35;17.30;;;-2.10;99.90;;;;;;4937579;28;1051933;-59
2023/12/05 08:20:38;;;;;;;33.10;18.65;;;-2.10;99.90;;;;;;4993760;28;20451;-56
2023/12/05 08:23:04;;;;;;;31.77;19.00;;;-2.00;99.90;;;;;;4957397;28;20480;-59
2023/12/05 08:25:29;;;;;;;30.63;18.30;;;-2.00;99.90;;;;;;4992836;28;20038;-55
2023/12/05 08:27:55;;;;;;;26.70;17.73;;;-2.00;99.90;;;;;;4984052;28;20030;-56
2023/12/05 08:30:20;;;;;;;26.38;17.80;;;-2.00;99.90;;;;;;4985567;28;20047;-55
2023/12/05 08:32:46;;;;;;;30.60;18.10;;;-2.00;99.90;;;;;;4979435;28;21236;-53
2023/12/05 08:35:12;;;;;;;32.03;17.25;;;-2.00;99.90;;;;;;4929478;28;20508;-56
2023/12/05 08:37:37;;;;;;;30.30;18.55;;;-1.90;99.90;;;;;;4980778;28;20665;-56
2023/12/05 08:40:03;;;;;;;34.10;17.60;;;-1.90;99.90;;;;;;5009234;28;20110;-57
2023/12/05 08:42:29;;;;;;;32.53;19.90;;;-1.90;99.90;;;;;;5002208;28;20033;-58
2023/12/05 08:44:54;;;;;;;32.78;18.58;;;-1.90;99.90;;;;;;4986762;28;20033;-58
2023/12/05 08:47:20;;;;;;;34.67;18.58;;;-1.90;99.90;;;;;;4972316;28;20037;-59
2023/12/05 08:49:45;;;;;;;32.80;18.30;;;-1.90;99.90;;;;;;4946045;28;22403;-57
2023/12/05 08:52:11;;;;;;;29.50;16.77;;;-1.90;99.90;;;;;;5023762;28;20029;-58
2023/12/05 08:54:36;;;;;;;30.77;18.98;;;-1.90;99.90;;;;;;4979017;28;20031;-58
2023/12/05 08:57:02;;;;;;;33.80;19.33;;;-1.90;99.90;;;;;;4975122;28;20508;-54
2023/12/05 08:59:28;;;;;;;33.55;18.52;;;-1.90;99.90;;;;;;4985313;28;20120;-58
2023/12/05 09:01:53;;;;;;;30.40;17.92;;;-1.90;99.90;;;;;;4972054;28;20484;-58
2023/12/05 09:04:18;;;;;;;31.42;18.50;;;-1.90;99.90;;;;;;5010047;28;20033;-57
2023/12/05 09:06:44;;;;;;;32.50;18.58;;;-1.80;99.90;;;;;;4942585;28;20151;-57
2023/12/05 09:09:09;;;;;;;29.50;17.92;;;-1.80;99.90;;;;;;4960201;28;21504;-55
2023/12/05 09:11:37;;;;;;;35.42;19.80;;;-1.80;99.90;;;;;;4979720;28;20109;-58
2023/12/05 09:14:05;;;;;;;30.60;18.85;;;-1.80;99.90;;;;;;4933361;28;20537;-58
2023/12/05 09:16:31;;;;;;;31.65;18.67;;;-1.70;99.90;;;;;;4967391;28;20363;-61
2023/12/05 09:18:57;;;;;;;36.35;18.77;;;-1.70;99.90;;;;;;4999737;28;20256;-58
2023/12/05 09:21:22;;;;;;;32.67;18.63;;;-1.70;99.90;;;;;;4948688;28;20028;-59
2023/12/05 09:23:48;;;;;;;31.85;18.75;;;-1.70;99.90;;;;;;4976883;28;20044;-58
2023/12/05 09:26:14;;;;;;;33.20;19.15;;;-1.80;99.90;;;;;;4947160;28;20095;-57
2023/12/05 09:28:40;;;;;;;31.05;19.95;;;-1.80;99.90;;;;;;4976493;28;20018;-56
2023/12/05 09:31:05;;;;;;;34.33;20.08;;;-1.70;99.90;;;;;;5008868;28;20102;-58
2023/12/05 09:33:31;;;;;;;31.08;19.15;;;-1.70;99.90;;;;;;4975367;28;20112;-57
2023/12/05 09:35:57;;;;;;;31.38;18.98;;;-1.70;99.90;;;;;;4963119;28;20036;-58
2023/12/05 09:38:22;;;;;;;35.75;19.23;;;-1.70;99.90;;;;;;4968345;28;20084;-60
2023/12/05 09:40:51;;;;;;;28.20;19.05;;;-1.70;99.90;;;;;;5014546;28;20025;-58
2023/12/05 09:43:20;;;;;;;28.27;18.63;;;-1.70;99.90;;;;;;5024377;28;20535;-55
2023/12/05 09:45:51;;;;;;;37.95;20.10;;;-1.70;99.90;;;;;;4964928;28;20532;-57
2023/12/05 09:48:21;;;;;;;31.20;19.10;;;-1.60;99.90;;;;;;4966934;28;20029;-59
2023/12/05 09:50:46;;;;;;;35.35;19.92;;;-1.60;99.90;;;;;;4966156;28;20478;-59
2023/12/05 09:53:14;;;;;;;33.42;19.75;;;-1.60;99.90;;;;;;4958607;28;20060;-59
2023/12/05 09:55:40;;;;;;;30.02;18.77;;;-1.60;99.90;;;;;;4944985;28;20133;-59
2023/12/05 09:58:07;;;;;;;31.63;19.05;;;-1.60;99.90;;;;;;5018468;28;20398;-57
2023/12/05 10:00:32;;;;;;;34.95;19.60;;;-1.60;99.90;;;;;;4968027;28;20476;-58
2023/12/05 10:03:02;;;;;;;32.22;19.27;;;-1.50;99.90;;;;;;4961312;28;20088;-61
2023/12/05 10:05:32;;;;;;;29.98;18.48;;;-1.50;99.90;;;;;;4951225;28;20107;-58
2023/12/05 10:07:58;;;;;;;29.10;18.48;;;-1.50;99.90;;;;;;4937381;28;20661;-61
2023/12/05 10:10:25;;;;;;;29.40;18.17;;;-1.50;99.90;;;;;;5009010;28;20037;-61
2023/12/05 10:12:52;;;;;;;33.05;19.85;;;-1.50;99.90;;;;;;4981182;28;20057;-59
2023/12/05 10:15:19;;;;;;;33.28;18.35;;;-1.50;99.90;;;;;;4962220;28;20168;-58
2023/12/05 10:17:46;;;;;;;31.20;18.15;;;-1.50;99.90;;;;;;4938173;28;20057;-59
2023/12/05 10:20:11;;;;;;;35.70;18.52;;;-1.50;99.90;;;;;;4954662;28;20588;-59
2023/12/05 10:22:37;;;;;;;31.15;19.42;;;-1.40;99.90;;;;;;4937058;28;20068;-61
2023/12/05 10:25:07;;;;;;;29.95;19.20;;;-1.40;99.90;;;;;;4982889;28;20034;-59
2023/12/05 10:27:32;;;;;;;28.95;17.38;;;-1.40;99.90;;;;;;4974618;28;20113;-60
2023/12/05 10:29:58;;;;;;;30.45;19.08;;;-1.40;99.90;;;;;;4943362;28;20034;-59
2023/12/05 10:32:30;;;;;;;28.95;18.58;;;-1.40;99.90;;;;;;4926209;28;20095;-61
2023/12/05 10:34:56;;;;;;;30.85;18.60;;;-1.40;99.90;;;;;;4972352;28;20043;-58
2023/12/05 10:37:28;;;;;;;28.38;18.77;;;-1.30;99.90;;;;;;4964015;28;20553;-60
2023/12/05 10:39:55;;;;;;;29.85;18.23;;;-1.30;99.90;;;;;;4926769;28;20034;-60
2023/12/05 10:42:27;;;;;;;27.73;18.48;;;-1.30;99.90;;;;;;4960422;28;20045;-60
2023/12/05 10:44:53;;;;;;;32.40;20.23;;;-1.30;99.90;;;;;;4939214;28;20036;-59
2023/12/05 10:47:19;;;;;;;31.10;18.60;;;-1.30;99.90;;;;;;4961346;28;20030;-59
2023/12/05 10:49:45;;;;;;;31.13;19.15;;;-1.20;99.90;;;;;;4931180;28;20050;-61
2023/12/05 10:52:15;;;;;;;30.98;18.77;;;-1.20;99.90;;;;;;4995018;28;20482;-61
2023/12/05 10:54:41;;;;;;;30.27;18.05;;;-1.20;99.90;;;;;;4953160;28;20048;-59
2023/12/05 10:57:10;;;;;;;30.73;18.60;;;-1.10;99.90;;;;;;4954261;28;20593;-60
2023/12/05 10:59:37;;;;;;;34.55;18.85;;;-1.10;99.90;;;;;;4928683;28;20107;-60
2023/12/05 11:02:14;;;;;;;30.88;19.80;;;-1.10;99.90;;;;;;4952759;28;20121;-59
2023/12/05 11:04:41;;;;;;;;;;;-1.00;99.90;;;;;;4934510;28;20060;-61
2023/12/05 11:07:07;;;;;;;32.03;19.42;;;-1.00;99.90;;;;;;4975384;28;19990;-62
2023/12/05 11:09:32;;;;;;;31.42;19.25;;;-1.00;99.90;;;;;;4930009;28;20549;-59
2023/12/05 11:11:59;;;;;;;30.67;18.17;;;-1.00;99.90;;;;;;4938745;28;20025;-58
2023/12/05 11:14:27;;;;;;;33.40;19.55;;;-1.00;99.90;;;;;;4921183;28;20093;-61
2023/12/05 11:16:54;;;;;;;31.33;19.02;;;-1.00;99.90;;;;;;4943767;28;20923;-60
2023/12/05 11:20:01;;;;;;;30.95;19.95;;;-1.00;99.90;;;;;;4983603;28;20040;-61
2023/12/05 11:22:26;;;;;;;31.73;18.92;;;-1.00;99.90;;;;;;4979618;28;20044;-62
2023/12/05 11:25:07;;;;;;;32.53;19.80;;;-1.00;99.90;;;;;;4933404;28;20026;-63
2023/12/05 11:28:00;;;;;;;30.83;19.63;;;-1.00;99.90;;;;;;4920905;28;20029;-62
2023/12/05 11:30:55;;;;;;;29.80;19.10;;;-1.00;99.90;;;;;;4902389;28;21549;-62
2023/12/05 11:33:31;;;;;;;32.97;19.25;;;-1.00;99.90;;;;;;4935784;28;20112;-62
2023/12/05 11:36:21;;;;;;;28.83;18.17;;;-0.90;99.90;;;;;;4999923;28;20073;-63
2023/12/05 11:38:47;;;;;;;31.55;19.25;;;-0.90;99.90;;;;;;4977764;28;20044;-62
2023/12/05 11:41:20;;;;;;;33.47;19.30;;;-0.90;99.90;;;;;;5022216;28;20013;-60
2023/12/05 11:44:11;;;;;;;31.10;19.73;;;-0.80;99.90;;;;;;4985868;28;20441;-61
2023/12/05 11:46:36;;;;;;;32.90;18.90;;;-0.80;99.90;;;;;;4980680;28;20029;-62
2023/12/05 11:49:03;;;;;;;34.47;19.98;;;-0.80;99.90;;;;;;4999959;28;20097;-61
2023/12/05 11:51:33;;;;;;;31.05;18.88;;;-0.80;99.90;;;;;;4987915;28;20070;-60
2023/12/05 11:54:04;;;;;;;31.88;18.67;;;-0.80;99.90;;;;;;4998553;28;20022;-61
2023/12/05 11:56:30;;;;;;;31.75;18.33;;;-0.80;99.90;;;;;;4973646;28;20120;-62
2023/12/05 11:59:14;;;;;;;28.70;19.23;;;-0.80;99.90;;;;;;5018630;28;20018;-63
2023/12/05 12:01:43;;;;;;;30.13;18.75;;;-0.80;99.90;;;;;;4985313;28;20079;-60
2023/12/05 12:04:21;;;;;;;29.13;17.58;;;-0.80;99.90;;;;;;4984946;28;20513;-62
2023/12/05 12:06:48;;;;;;;30.48;18.23;;;-0.80;99.90;;;;;;4987003;28;20499;-62
2023/12/05 12:09:14;;;;;;;29.65;17.75;;;-0.80;99.90;;;;;;4986513;28;20026;-62
2023/12/05 12:11:40;;;;;;;33.03;19.92;;;-0.70;99.90;;;;;;4983306;28;20468;-63
2023/12/05 12:14:16;;;;;;;30.70;19.10;;;-0.70;99.90;;;;;;5021874;28;20026;-63
2023/12/05 12:16:43;;;;;;;27.42;17.25;;;-0.70;99.90;;;;;;4965666;28;20037;-62
2023/12/05 12:19:11;;;;;;;28.88;18.60;;;-0.60;99.90;;;;;;4986007;28;20532;-63
2023/12/05 12:21:38;;;;;;;33.28;19.33;;;-0.70;99.90;;;;;;4984471;28;20067;-66
2023/12/05 12:24:04;;;;;;;32.67;19.90;;;-0.70;99.90;;;;;;4962716;28;20025;-62
2023/12/05 12:26:32;;;;;;;23.92;18.38;;;-0.60;99.90;;;;;;4988055;28;20022;-63
2023/12/05 12:29:05;;;;;;;28.42;18.52;;;-0.60;99.90;;;;;;4986587;28;20589;-62
2023/12/05 12:31:31;;;;;;;30.08;19.55;;;-0.60;99.90;;;;;;4907053;28;20496;-62